sensor_id;sensor_type;location;lat;lon;timestamp;pressure;altitude;pressure_sealevel;temperature;humidity
9525;BME280;15940;48.734;9.112;2023-07-22T00:00:17;96500.72;;;15.62;72.58
9525;BME280;15940;48.734;9.112;2023-07-22T00:02:44;96505.00;;;15.58;72.49
9525;BME280;15940;48.734;9.112;2023-07-22T00:05:11;96502.31;;;15.39;72.72
9525;BME280;15940;48.734;9.112;2023-07-22T00:07:39;96500.78;;;15.25;73.90
9525;BME280;15940;48.734;9.112;2023-07-22T00:10:08;96509.88;;;15.14;74.18
9525;BME280;15940;48.734;9.112;2023-07-22T00:12:35;96511.16;;;14.94;75.94
9525;BME280;15940;48.734;9.112;2023-07-22T00:15:02;96506.28;;;15.06;75.58
9525;BME280;15940;48.734;9.112;2023-07-22T00:17:29;96513.13;;;15.12;74.86
9525;BME280;15940;48.734;9.112;2023-07-22T00:19:56;96502.00;;;15.10;74.63
9525;BME280;15940;48.734;9.112;2023-07-22T00:22:23;96511.59;;;15.17;74.83
9525;BME280;15940;48.734;9.112;2023-07-22T00:24:53;96502.44;;;15.14;74.18
9525;BME280;15940;48.734;9.112;2023-07-22T00:27:20;96508.16;;;14.98;74.30
9525;BME280;15940;48.734;9.112;2023-07-22T00:32:16;96509.69;;;14.93;75.49
9525;BME280;15940;48.734;9.112;2023-07-22T00:34:43;96513.97;;;14.89;75.29
9525;BME280;15940;48.734;9.112;2023-07-22T00:37:10;96509.63;;;14.80;76.08
9525;BME280;15940;48.734;9.112;2023-07-22T00:39:36;96514.38;;;14.74;76.38
9525;BME280;15940;48.734;9.112;2023-07-22T00:42:04;96517.94;;;14.69;76.59
9525;BME280;15940;48.734;9.112;2023-07-22T00:44:33;96512.84;;;14.78;75.96
9525;BME280;15940;48.734;9.112;2023-07-22T00:47:01;96511.88;;;14.57;76.30
9525;BME280;15940;48.734;9.112;2023-07-22T00:49:30;96507.56;;;14.43;77.60
9525;BME280;15940;48.734;9.112;2023-07-22T00:52:02;96511.03;;;14.43;77.58
9525;BME280;15940;48.734;9.112;2023-07-22T00:54:29;96512.78;;;14.41;77.67
9525;BME280;15940;48.734;9.112;2023-07-22T00:56:57;96514.16;;;14.53;77.72
9525;BME280;15940;48.734;9.112;2023-07-22T01:01:46;96503.19;;;14.34;78.06
9525;BME280;15940;48.734;9.112;2023-07-22T01:04:15;96494.91;;;14.21;77.79
9525;BME280;15940;48.734;9.112;2023-07-22T01:06:44;96498.81;;;14.25;78.99
9525;BME280;15940;48.734;9.112;2023-07-22T01:09:11;96501.50;;;14.31;78.94
9525;BME280;15940;48.734;9.112;2023-07-22T01:11:39;96500.13;;;14.43;77.93
9525;BME280;15940;48.734;9.112;2023-07-22T01:16:35;96492.47;;;14.42;77.83
9525;BME280;15940;48.734;9.112;2023-07-22T01:19:03;96493.75;;;14.35;78.18
9525;BME280;15940;48.734;9.112;2023-07-22T01:21:31;96487.00;;;14.42;77.82
9525;BME280;15940;48.734;9.112;2023-07-22T01:24:00;96480.78;;;14.47;77.58
9525;BME280;15940;48.734;9.112;2023-07-22T01:26:27;96484.97;;;14.23;77.50
9525;BME280;15940;48.734;9.112;2023-07-22T01:29:03;96478.50;;;14.02;78.15
9525;BME280;15940;48.734;9.112;2023-07-22T01:31:30;96485.78;;;13.94;79.27
9525;BME280;15940;48.734;9.112;2023-07-22T01:33:57;96474.84;;;13.99;79.80
9525;BME280;15940;48.734;9.112;2023-07-22T01:36:24;96470.16;;;14.19;80.01
9525;BME280;15940;48.734;9.112;2023-07-22T01:38:51;96472.19;;;14.37;78.85
9525;BME280;15940;48.734;9.112;2023-07-22T01:41:20;96463.16;;;14.48;78.56
9525;BME280;15940;48.734;9.112;2023-07-22T01:46:18;96468.47;;;14.59;77.60
9525;BME280;15940;48.734;9.112;2023-07-22T01:48:45;96474.59;;;14.65;77.57
9525;BME280;15940;48.734;9.112;2023-07-22T01:51:12;96479.84;;;14.63;77.79
9525;BME280;15940;48.734;9.112;2023-07-22T01:53:38;96472.59;;;14.66;77.12
9525;BME280;15940;48.734;9.112;2023-07-22T01:56:05;96471.44;;;14.61;77.37
9525;BME280;15940;48.734;9.112;2023-07-22T01:58:32;96474.44;;;14.57;77.63
9525;BME280;15940;48.734;9.112;2023-07-22T02:00:59;96465.63;;;14.51;77.38
9525;BME280;15940;48.734;9.112;2023-07-22T02:03:27;96466.41;;;14.46;77.98
9525;BME280;15940;48.734;9.112;2023-07-22T02:06:01;96469.59;;;14.50;77.66
9525;BME280;15940;48.734;9.112;2023-07-22T02:08:29;96474.34;;;14.44;77.41
9525;BME280;15940;48.734;9.112;2023-07-22T02:11:01;96471.59;;;14.50;77.49
9525;BME280;15940;48.734;9.112;2023-07-22T02:13:29;96477.31;;;14.46;77.59
9525;BME280;15940;48.734;9.112;2023-07-22T02:15:56;96480.16;;;14.35;77.74
9525;BME280;15940;48.734;9.112;2023-07-22T02:18:23;96477.19;;;14.33;78.41
9525;BME280;15940;48.734;9.112;2023-07-22T02:20:51;96479.94;;;14.33;77.59
9525;BME280;15940;48.734;9.112;2023-07-22T02:23:18;96485.06;;;14.37;77.92
9525;BME280;15940;48.734;9.112;2023-07-22T02:25:49;96483.94;;;14.26;78.50
9525;BME280;15940;48.734;9.112;2023-07-22T02:28:16;96488.16;;;14.27;76.70
9525;BME280;15940;48.734;9.112;2023-07-22T02:30:46;96483.78;;;14.19;78.57
9525;BME280;15940;48.734;9.112;2023-07-22T02:33:13;96489.00;;;14.17;79.04
9525;BME280;15940;48.734;9.112;2023-07-22T02:35:41;96490.22;;;14.21;77.97
9525;BME280;15940;48.734;9.112;2023-07-22T02:38:10;96491.44;;;14.20;78.18
9525;BME280;15940;48.734;9.112;2023-07-22T02:40:37;96491.50;;;14.15;78.61
9525;BME280;15940;48.734;9.112;2023-07-22T02:43:04;96487.59;;;14.10;79.23
9525;BME280;15940;48.734;9.112;2023-07-22T02:45:32;96481.75;;;14.00;79.11
9525;BME280;15940;48.734;9.112;2023-07-22T02:47:59;96482.59;;;13.90;79.12
9525;BME280;15940;48.734;9.112;2023-07-22T02:50:26;96475.63;;;13.94;79.04
9525;BME280;15940;48.734;9.112;2023-07-22T02:52:53;96489.41;;;14.02;78.94
9525;BME280;15940;48.734;9.112;2023-07-22T02:55:22;96484.72;;;14.03;79.31
9525;BME280;15940;48.734;9.112;2023-07-22T02:57:49;96490.81;;;14.09;79.01
9525;BME280;15940;48.734;9.112;2023-07-22T03:00:18;96483.94;;;14.02;79.57
9525;BME280;15940;48.734;9.112;2023-07-22T03:02:49;96484.72;;;14.03;79.08
9525;BME280;15940;48.734;9.112;2023-07-22T03:05:18;96485.16;;;14.07;78.92
9525;BME280;15940;48.734;9.112;2023-07-22T03:07:47;96486.41;;;14.06;78.49
9525;BME280;15940;48.734;9.112;2023-07-22T03:10:13;96476.81;;;13.99;77.80
9525;BME280;15940;48.734;9.112;2023-07-22T03:12:42;96477.16;;;13.90;78.33
9525;BME280;15940;48.734;9.112;2023-07-22T03:15:10;96474.22;;;13.88;78.91
9525;BME280;15940;48.734;9.112;2023-07-22T03:17:39;96470.78;;;13.82;78.81
9525;BME280;15940;48.734;9.112;2023-07-22T03:20:08;96472.78;;;13.81;79.79
9525;BME280;15940;48.734;9.112;2023-07-22T03:22:40;96473.25;;;13.85;79.31
9525;BME280;15940;48.734;9.112;2023-07-22T03:25:07;96476.38;;;13.95;79.56
9525;BME280;15940;48.734;9.112;2023-07-22T03:27:36;96467.28;;;13.87;79.09
9525;BME280;15940;48.734;9.112;2023-07-22T03:30:06;96471.53;;;13.82;79.47
9525;BME280;15940;48.734;9.112;2023-07-22T03:32:34;96477.25;;;13.79;79.79
9525;BME280;15940;48.734;9.112;2023-07-22T03:35:01;96470.25;;;13.89;78.72
9525;BME280;15940;48.734;9.112;2023-07-22T03:37:28;96469.50;;;13.88;78.52
9525;BME280;15940;48.734;9.112;2023-07-22T03:39:55;96473.50;;;13.82;79.49
9525;BME280;15940;48.734;9.112;2023-07-22T03:42:22;96480.31;;;13.69;80.71
9525;BME280;15940;48.734;9.112;2023-07-22T03:44:49;96480.50;;;13.77;79.85
9525;BME280;15940;48.734;9.112;2023-07-22T03:47:19;96483.66;;;13.81;79.86
9525;BME280;15940;48.734;9.112;2023-07-22T03:49:46;96476.94;;;13.88;78.67
9525;BME280;15940;48.734;9.112;2023-07-22T03:52:13;96474.50;;;13.84;77.62
9525;BME280;15940;48.734;9.112;2023-07-22T03:54:43;96474.88;;;13.69;79.34
9525;BME280;15940;48.734;9.112;2023-07-22T03:57:10;96471.72;;;13.65;79.39
9525;BME280;15940;48.734;9.112;2023-07-22T03:59:39;96476.81;;;13.75;80.35
9525;BME280;15940;48.734;9.112;2023-07-22T04:02:06;96470.69;;;13.68;79.86
9525;BME280;15940;48.734;9.112;2023-07-22T04:04:34;96473.91;;;13.67;79.69
9525;BME280;15940;48.734;9.112;2023-07-22T04:07:01;96479.91;;;13.60;79.80
9525;BME280;15940;48.734;9.112;2023-07-22T04:09:28;96468.38;;;13.78;79.95
9525;BME280;15940;48.734;9.112;2023-07-22T04:11:55;96473.28;;;13.80;79.45
9525;BME280;15940;48.734;9.112;2023-07-22T04:14:22;96470.63;;;13.98;79.09
9525;BME280;15940;48.734;9.112;2023-07-22T04:16:49;96469.66;;;14.20;77.55
9525;BME280;15940;48.734;9.112;2023-07-22T04:19:16;96472.66;;;14.17;78.06
9525;BME280;15940;48.734;9.112;2023-07-22T04:21:44;96469.25;;;14.35;77.45
9525;BME280;15940;48.734;9.112;2023-07-22T04:24:11;96464.53;;;14.36;75.74
9525;BME280;15940;48.734;9.112;2023-07-22T04:26:38;96466.13;;;14.50;76.45
9525;BME280;15940;48.734;9.112;2023-07-22T04:29:05;96464.28;;;14.58;75.84
9525;BME280;15940;48.734;9.112;2023-07-22T04:31:34;96462.28;;;14.58;75.43
9525;BME280;15940;48.734;9.112;2023-07-22T04:34:01;96474.06;;;14.67;75.81
9525;BME280;15940;48.734;9.112;2023-07-22T04:36:28;96475.69;;;14.75;75.11
9525;BME280;15940;48.734;9.112;2023-07-22T04:38:56;96466.00;;;14.80;74.52
9525;BME280;15940;48.734;9.112;2023-07-22T04:41:23;96469.88;;;14.84;74.69
9525;BME280;15940;48.734;9.112;2023-07-22T04:43:50;96472.09;;;14.86;74.34
9525;BME280;15940;48.734;9.112;2023-07-22T04:46:17;96477.00;;;14.88;74.55
9525;BME280;15940;48.734;9.112;2023-07-22T04:48:44;96477.00;;;14.88;74.86
9525;BME280;15940;48.734;9.112;2023-07-22T04:51:12;96469.22;;;14.97;74.85
9525;BME280;15940;48.734;9.112;2023-07-22T04:53:38;96470.69;;;14.98;73.46
9525;BME280;15940;48.734;9.112;2023-07-22T04:56:07;96482.56;;;15.01;74.53
9525;BME280;15940;48.734;9.112;2023-07-22T04:58:34;96479.09;;;15.00;73.83
9525;BME280;15940;48.734;9.112;2023-07-22T05:01:00;96484.69;;;15.08;73.40
9525;BME280;15940;48.734;9.112;2023-07-22T05:03:27;96492.59;;;15.25;73.40
9525;BME280;15940;48.734;9.112;2023-07-22T05:05:55;96479.50;;;15.23;72.52
9525;BME280;15940;48.734;9.112;2023-07-22T05:08:23;96481.47;;;15.23;73.25
9525;BME280;15940;48.734;9.112;2023-07-22T05:10:50;96474.34;;;15.20;72.48
9525;BME280;15940;48.734;9.112;2023-07-22T05:13:18;96482.06;;;15.15;73.21
9525;BME280;15940;48.734;9.112;2023-07-22T05:15:45;96485.31;;;15.14;73.24
9525;BME280;15940;48.734;9.112;2023-07-22T05:18:12;96489.13;;;15.24;73.06
9525;BME280;15940;48.734;9.112;2023-07-22T05:20:39;96492.53;;;15.30;72.83
9525;BME280;15940;48.734;9.112;2023-07-22T05:23:06;96487.44;;;15.40;71.89
9525;BME280;15940;48.734;9.112;2023-07-22T05:25:33;96490.69;;;15.38;72.81
9525;BME280;15940;48.734;9.112;2023-07-22T05:28:00;96489.84;;;15.43;72.97
9525;BME280;15940;48.734;9.112;2023-07-22T05:30:28;96493.75;;;15.48;73.19
9525;BME280;15940;48.734;9.112;2023-07-22T05:32:55;96495.44;;;15.51;72.18
9525;BME280;15940;48.734;9.112;2023-07-22T05:35:22;96489.03;;;15.49;73.17
9525;BME280;15940;48.734;9.112;2023-07-22T05:37:49;96494.41;;;15.54;72.23
9525;BME280;15940;48.734;9.112;2023-07-22T05:40:16;96489.53;;;15.66;72.22
9525;BME280;15940;48.734;9.112;2023-07-22T05:42:43;96489.84;;;15.76;72.36
9525;BME280;15940;48.734;9.112;2023-07-22T05:45:10;96500.16;;;15.83;71.70
9525;BME280;15940;48.734;9.112;2023-07-22T05:47:40;96500.59;;;15.87;71.83
9525;BME280;15940;48.734;9.112;2023-07-22T05:50:08;96499.97;;;15.94;71.27
9525;BME280;15940;48.734;9.112;2023-07-22T05:52:35;96496.19;;;15.97;71.00
9525;BME280;15940;48.734;9.112;2023-07-22T05:55:02;96503.34;;;16.13;70.43
9525;BME280;15940;48.734;9.112;2023-07-22T05:57:30;96506.28;;;16.15;69.95
9525;BME280;15940;48.734;9.112;2023-07-22T05:59:57;96506.69;;;16.19;70.20
9525;BME280;15940;48.734;9.112;2023-07-22T06:02:24;96508.06;;;16.26;69.62
9525;BME280;15940;48.734;9.112;2023-07-22T06:04:52;96512.78;;;16.39;68.63
9525;BME280;15940;48.734;9.112;2023-07-22T06:07:19;96512.19;;;16.33;68.96
9525;BME280;15940;48.734;9.112;2023-07-22T06:09:46;96519.75;;;16.40;69.49
9525;BME280;15940;48.734;9.112;2023-07-22T06:12:13;96518.06;;;16.50;68.88
9525;BME280;15940;48.734;9.112;2023-07-22T06:14:39;96519.34;;;16.49;69.21
9525;BME280;15940;48.734;9.112;2023-07-22T06:17:06;96522.28;;;16.51;69.47
9525;BME280;15940;48.734;9.112;2023-07-22T06:19:33;96524.78;;;16.62;69.43
9525;BME280;15940;48.734;9.112;2023-07-22T06:22:01;96528.06;;;16.74;69.20
9525;BME280;15940;48.734;9.112;2023-07-22T06:24:29;96519.94;;;16.81;67.31
9525;BME280;15940;48.734;9.112;2023-07-22T06:26:56;96533.72;;;16.89;67.91
9525;BME280;15940;48.734;9.112;2023-07-22T06:29:22;96530.41;;;17.04;67.44
9525;BME280;15940;48.734;9.112;2023-07-22T06:31:49;96531.44;;;17.14;66.61
9525;BME280;15940;48.734;9.112;2023-07-22T06:34:16;96522.38;;;17.19;66.66
9525;BME280;15940;48.734;9.112;2023-07-22T06:36:43;96535.59;;;17.28;66.19
9525;BME280;15940;48.734;9.112;2023-07-22T06:39:11;96532.81;;;17.41;65.41
9525;BME280;15940;48.734;9.112;2023-07-22T06:41:38;96536.91;;;17.48;65.88
9525;BME280;15940;48.734;9.112;2023-07-22T06:44:05;96538.97;;;17.55;65.68
9525;BME280;15940;48.734;9.112;2023-07-22T06:46:32;96539.75;;;17.77;64.66
9525;BME280;15940;48.734;9.112;2023-07-22T06:48:59;96533.59;;;17.84;65.27
9525;BME280;15940;48.734;9.112;2023-07-22T06:51:26;96536.31;;;18.05;64.35
9525;BME280;15940;48.734;9.112;2023-07-22T06:53:53;96541.50;;;18.16;64.69
9525;BME280;15940;48.734;9.112;2023-07-22T06:56:21;96532.50;;;18.36;63.14
9525;BME280;15940;48.734;9.112;2023-07-22T06:58:48;96544.13;;;18.50;62.77
9525;BME280;15940;48.734;9.112;2023-07-22T07:01:16;96546.06;;;18.70;62.07
9525;BME280;15940;48.734;9.112;2023-07-22T07:03:43;96538.44;;;18.84;60.43
9525;BME280;15940;48.734;9.112;2023-07-22T07:06:11;96540.16;;;19.02;60.61
9525;BME280;15940;48.734;9.112;2023-07-22T07:08:38;96547.00;;;19.17;60.16
9525;BME280;15940;48.734;9.112;2023-07-22T07:11:05;96549.38;;;19.20;60.05
9525;BME280;15940;48.734;9.112;2023-07-22T07:13:33;96541.34;;;19.30;59.83
9525;BME280;15940;48.734;9.112;2023-07-22T07:16:22;96546.56;;;19.56;58.42
9525;BME280;15940;48.734;9.112;2023-07-22T07:18:49;96537.97;;;19.67;58.08
9525;BME280;15940;48.734;9.112;2023-07-22T07:21:16;96539.59;;;19.71;57.98
9525;BME280;15940;48.734;9.112;2023-07-22T07:23:44;96548.78;;;19.88;57.45
9525;BME280;15940;48.734;9.112;2023-07-22T07:26:11;96552.44;;;20.06;56.46
9525;BME280;15940;48.734;9.112;2023-07-22T07:28:39;96549.53;;;20.12;55.91
9525;BME280;15940;48.734;9.112;2023-07-22T07:31:06;96551.16;;;20.07;56.15
9525;BME280;15940;48.734;9.112;2023-07-22T07:33:34;96549.69;;;20.06;56.10
9525;BME280;15940;48.734;9.112;2023-07-22T07:36:01;96553.00;;;20.12;56.07
9525;BME280;15940;48.734;9.112;2023-07-22T07:38:28;96545.66;;;20.30;56.38
9525;BME280;15940;48.734;9.112;2023-07-22T07:40:58;96550.78;;;20.57;55.88
9525;BME280;15940;48.734;9.112;2023-07-22T07:43:25;96549.44;;;20.73;55.95
9525;BME280;15940;48.734;9.112;2023-07-22T07:46:16;96546.41;;;20.94;55.33
9525;BME280;15940;48.734;9.112;2023-07-22T07:48:44;96545.47;;;21.06;54.14
9525;BME280;15940;48.734;9.112;2023-07-22T07:51:13;96549.81;;;21.17;54.21
9525;BME280;15940;48.734;9.112;2023-07-22T07:53:40;96545.34;;;21.37;53.52
9525;BME280;15940;48.734;9.112;2023-07-22T07:56:08;96553.91;;;21.49;51.96
9525;BME280;15940;48.734;9.112;2023-07-22T07:58:36;96541.94;;;21.54;50.58
9525;BME280;15940;48.734;9.112;2023-07-22T08:01:04;96547.00;;;21.65;50.96
9525;BME280;15940;48.734;9.112;2023-07-22T08:03:34;96546.69;;;21.61;51.19
9525;BME280;15940;48.734;9.112;2023-07-22T08:06:02;96547.78;;;21.58;49.83
9525;BME280;15940;48.734;9.112;2023-07-22T08:08:29;96551.22;;;21.66;50.04
9525;BME280;15940;48.734;9.112;2023-07-22T08:11:00;96545.66;;;21.74;50.28
9525;BME280;15940;48.734;9.112;2023-07-22T08:13:27;96551.81;;;21.89;49.97
9525;BME280;15940;48.734;9.112;2023-07-22T08:15:55;96549.69;;;21.98;48.49
9525;BME280;15940;48.734;9.112;2023-07-22T08:18:23;96545.72;;;21.91;49.61
9525;BME280;15940;48.734;9.112;2023-07-22T08:20:52;96544.50;;;22.09;50.00
9525;BME280;15940;48.734;9.112;2023-07-22T08:23:20;96542.31;;;22.25;50.70
9525;BME280;15940;48.734;9.112;2023-07-22T08:25:47;96533.34;;;22.42;48.56
9525;BME280;15940;48.734;9.112;2023-07-22T08:28:14;96535.13;;;22.47;49.48
9525;BME280;15940;48.734;9.112;2023-07-22T08:30:42;96538.72;;;22.57;49.16
9525;BME280;15940;48.734;9.112;2023-07-22T08:33:10;96534.88;;;22.70;47.87
9525;BME280;15940;48.734;9.112;2023-07-22T08:35:38;96529.97;;;22.86;48.34
9525;BME280;15940;48.734;9.112;2023-07-22T08:38:07;96531.13;;;23.09;46.21
9525;BME280;15940;48.734;9.112;2023-07-22T08:40:34;96530.06;;;23.22;45.63
9525;BME280;15940;48.734;9.112;2023-07-22T08:43:03;96521.75;;;23.22;44.28
9525;BME280;15940;48.734;9.112;2023-07-22T08:45:34;96526.66;;;23.14;42.23
9525;BME280;15940;48.734;9.112;2023-07-22T08:48:03;96514.25;;;23.05;44.33
9525;BME280;15940;48.734;9.112;2023-07-22T08:50:41;96520.34;;;23.31;42.52
9525;BME280;15940;48.734;9.112;2023-07-22T08:53:12;96526.19;;;23.35;43.37
9525;BME280;15940;48.734;9.112;2023-07-22T08:55:39;96515.91;;;23.45;42.83
9525;BME280;15940;48.734;9.112;2023-07-22T08:58:08;96523.94;;;23.87;39.62
9525;BME280;15940;48.734;9.112;2023-07-22T09:00:36;96523.50;;;23.81;39.67
9525;BME280;15940;48.734;9.112;2023-07-22T09:03:03;96522.47;;;23.50;41.82
9525;BME280;15940;48.734;9.112;2023-07-22T09:05:32;96523.16;;;23.14;42.92
9525;BME280;15940;48.734;9.112;2023-07-22T09:08:02;96528.97;;;22.91;40.27
9525;BME280;15940;48.734;9.112;2023-07-22T09:10:31;96528.88;;;22.46;41.25
9525;BME280;15940;48.734;9.112;2023-07-22T09:13:00;96527.88;;;22.34;44.69
9525;BME280;15940;48.734;9.112;2023-07-22T09:15:27;96537.13;;;22.12;42.66
9525;BME280;15940;48.734;9.112;2023-07-22T09:17:55;96533.56;;;21.94;42.79
9525;BME280;15940;48.734;9.112;2023-07-22T09:20:22;96532.81;;;21.68;44.46
9525;BME280;15940;48.734;9.112;2023-07-22T09:22:50;96526.97;;;21.64;45.63
9525;BME280;15940;48.734;9.112;2023-07-22T09:25:20;96535.34;;;21.49;44.69
9525;BME280;15940;48.734;9.112;2023-07-22T09:27:50;96533.56;;;21.44;44.07
9525;BME280;15940;48.734;9.112;2023-07-22T09:30:23;96533.03;;;21.38;44.01
9525;BME280;15940;48.734;9.112;2023-07-22T09:32:52;96526.06;;;21.37;45.53
9525;BME280;15940;48.734;9.112;2023-07-22T09:35:19;96524.75;;;21.71;45.78
9525;BME280;15940;48.734;9.112;2023-07-22T09:37:47;96525.69;;;21.90;43.44
9525;BME280;15940;48.734;9.112;2023-07-22T09:40:18;96531.75;;;22.14;45.72
9525;BME280;15940;48.734;9.112;2023-07-22T09:42:49;96521.41;;;22.57;44.76
9525;BME280;15940;48.734;9.112;2023-07-22T09:45:17;96526.59;;;23.04;43.55
9525;BME280;15940;48.734;9.112;2023-07-22T09:47:47;96526.91;;;23.35;43.82
9525;BME280;15940;48.734;9.112;2023-07-22T09:50:17;96525.63;;;23.36;44.50
9525;BME280;15940;48.734;9.112;2023-07-22T09:52:49;96514.75;;;23.21;42.75
9525;BME280;15940;48.734;9.112;2023-07-22T09:55:18;96518.31;;;23.04;43.03
9525;BME280;15940;48.734;9.112;2023-07-22T09:57:50;96517.78;;;23.16;43.49
9525;BME280;15940;48.734;9.112;2023-07-22T10:00:17;96511.25;;;22.94;40.44
9525;BME280;15940;48.734;9.112;2023-07-22T10:02:48;96514.53;;;23.09;43.62
9525;BME280;15940;48.734;9.112;2023-07-22T10:05:17;96508.78;;;23.42;41.73
9525;BME280;15940;48.734;9.112;2023-07-22T10:07:48;96517.34;;;23.63;38.13
9525;BME280;15940;48.734;9.112;2023-07-22T10:10:18;96508.25;;;23.53;39.79
9525;BME280;15940;48.734;9.112;2023-07-22T10:12:47;96502.78;;;23.36;38.77
9525;BME280;15940;48.734;9.112;2023-07-22T10:15:16;96513.78;;;23.26;39.05
9525;BME280;15940;48.734;9.112;2023-07-22T10:17:44;96514.53;;;23.09;40.67
9525;BME280;15940;48.734;9.112;2023-07-22T10:20:13;96521.47;;;23.01;40.61
9525;BME280;15940;48.734;9.112;2023-07-22T10:22:42;96515.22;;;23.00;39.76
9525;BME280;15940;48.734;9.112;2023-07-22T10:25:14;96518.25;;;22.95;43.09
9525;BME280;15940;48.734;9.112;2023-07-22T10:27:42;96510.47;;;23.11;41.67
9525;BME280;15940;48.734;9.112;2023-07-22T10:30:12;96510.03;;;23.04;42.82
9525;BME280;15940;48.734;9.112;2023-07-22T10:32:41;96512.41;;;23.18;42.54
9525;BME280;15940;48.734;9.112;2023-07-22T10:35:10;96502.88;;;23.28;41.33
9525;BME280;15940;48.734;9.112;2023-07-22T10:37:38;96492.81;;;23.50;40.33
9525;BME280;15940;48.734;9.112;2023-07-22T10:40:25;96515.22;;;23.27;41.65
9525;BME280;15940;48.734;9.112;2023-07-22T10:43:00;96512.47;;;23.27;40.62
9525;BME280;15940;48.734;9.112;2023-07-22T10:45:30;96506.88;;;23.72;42.13
9525;BME280;15940;48.734;9.112;2023-07-22T10:48:04;96505.09;;;24.22;40.69
9525;BME280;15940;48.734;9.112;2023-07-22T10:50:42;96498.03;;;24.77;40.06
9525;BME280;15940;48.734;9.112;2023-07-22T10:53:11;96495.34;;;25.18;39.21
9525;BME280;15940;48.734;9.112;2023-07-22T10:56:22;96489.28;;;25.51;36.54
9525;BME280;15940;48.734;9.112;2023-07-22T10:59:00;96496.38;;;25.63;39.62
9525;BME280;15940;48.734;9.112;2023-07-22T11:01:36;96488.09;;;25.85;38.38
9525;BME280;15940;48.734;9.112;2023-07-22T11:04:12;96480.72;;;25.78;36.38
9525;BME280;15940;48.734;9.112;2023-07-22T11:06:52;96485.19;;;25.52;36.86
9525;BME280;15940;48.734;9.112;2023-07-22T11:09:37;96486.03;;;25.14;36.30
9525;BME280;15940;48.734;9.112;2023-07-22T11:12:07;96485.78;;;24.52;38.80
9525;BME280;15940;48.734;9.112;2023-07-22T11:14:40;96484.88;;;24.30;39.76
9525;BME280;15940;48.734;9.112;2023-07-22T11:17:09;96485.56;;;24.01;39.43
9525;BME280;15940;48.734;9.112;2023-07-22T11:19:37;96482.72;;;23.72;41.27
9525;BME280;15940;48.734;9.112;2023-07-22T11:22:05;96481.53;;;23.65;41.55
9525;BME280;15940;48.734;9.112;2023-07-22T11:24:33;96482.00;;;23.72;41.78
9525;BME280;15940;48.734;9.112;2023-07-22T11:27:03;96475.03;;;23.80;42.35
9525;BME280;15940;48.734;9.112;2023-07-22T11:29:30;96477.56;;;24.15;40.73
9525;BME280;15940;48.734;9.112;2023-07-22T11:31:58;96472.94;;;24.27;41.19
9525;BME280;15940;48.734;9.112;2023-07-22T11:34:26;96478.78;;;24.70;42.17
9525;BME280;15940;48.734;9.112;2023-07-22T11:36:55;96471.75;;;24.98;39.93
9525;BME280;15940;48.734;9.112;2023-07-22T11:39:24;96465.56;;;25.28;39.97
9525;BME280;15940;48.734;9.112;2023-07-22T11:41:52;96461.72;;;25.43;38.59
9525;BME280;15940;48.734;9.112;2023-07-22T11:44:21;96452.06;;;25.44;38.21
9525;BME280;15940;48.734;9.112;2023-07-22T11:46:54;96454.38;;;25.48;39.45
9525;BME280;15940;48.734;9.112;2023-07-22T11:49:28;96433.28;;;25.64;37.21
9525;BME280;15940;48.734;9.112;2023-07-22T11:51:57;96437.69;;;25.57;38.10
9525;BME280;15940;48.734;9.112;2023-07-22T11:54:25;96434.03;;;25.64;37.73
9525;BME280;15940;48.734;9.112;2023-07-22T11:56:52;96422.09;;;26.05;38.37
9525;BME280;15940;48.734;9.112;2023-07-22T11:59:36;96426.34;;;26.27;39.93
9525;BME280;15940;48.734;9.112;2023-07-22T12:02:04;96418.81;;;26.39;36.90
9525;BME280;15940;48.734;9.112;2023-07-22T12:04:33;96426.72;;;26.33;36.88
9525;BME280;15940;48.734;9.112;2023-07-22T12:07:01;96435.19;;;25.40;37.22
9525;BME280;15940;48.734;9.112;2023-07-22T12:09:29;96429.69;;;25.21;38.81
9525;BME280;15940;48.734;9.112;2023-07-22T12:11:58;96429.75;;;24.92;39.64
9525;BME280;15940;48.734;9.112;2023-07-22T12:14:33;96430.50;;;25.02;38.20
9525;BME280;15940;48.734;9.112;2023-07-22T12:17:01;96423.69;;;24.64;38.68
9525;BME280;15940;48.734;9.112;2023-07-22T12:19:29;96408.06;;;24.78;39.28
9525;BME280;15940;48.734;9.112;2023-07-22T12:21:57;96420.41;;;24.97;40.48
9525;BME280;15940;48.734;9.112;2023-07-22T12:24:24;96413.28;;;24.94;39.56
9525;BME280;15940;48.734;9.112;2023-07-22T12:26:51;96396.09;;;25.26;40.17
9525;BME280;15940;48.734;9.112;2023-07-22T12:29:18;96407.28;;;25.38;37.88
9525;BME280;15940;48.734;9.112;2023-07-22T12:31:45;96400.59;;;25.62;37.11
9525;BME280;15940;48.734;9.112;2023-07-22T12:34:12;96404.75;;;25.83;37.74
9525;BME280;15940;48.734;9.112;2023-07-22T12:36:39;96405.16;;;25.89;36.70
9525;BME280;15940;48.734;9.112;2023-07-22T12:39:07;96393.81;;;26.18;37.39
9525;BME280;15940;48.734;9.112;2023-07-22T12:41:34;96391.88;;;26.75;35.16
9525;BME280;15940;48.734;9.112;2023-07-22T12:44:01;96386.63;;;27.02;35.54
9525;BME280;15940;48.734;9.112;2023-07-22T12:46:29;96393.31;;;26.76;35.71
9525;BME280;15940;48.734;9.112;2023-07-22T12:48:55;96386.25;;;26.30;34.94
9525;BME280;15940;48.734;9.112;2023-07-22T12:51:22;96388.50;;;25.89;36.53
9525;BME280;15940;48.734;9.112;2023-07-22T12:53:49;96384.28;;;25.88;36.11
9525;BME280;15940;48.734;9.112;2023-07-22T12:56:18;96390.31;;;26.17;35.77
9525;BME280;15940;48.734;9.112;2023-07-22T12:58:44;96378.59;;;26.40;34.46
9525;BME280;15940;48.734;9.112;2023-07-22T13:01:12;96380.34;;;26.57;35.91
9525;BME280;15940;48.734;9.112;2023-07-22T13:03:39;96374.75;;;26.45;35.42
9525;BME280;15940;48.734;9.112;2023-07-22T13:06:06;96372.16;;;26.71;34.58
9525;BME280;15940;48.734;9.112;2023-07-22T13:08:33;96381.00;;;26.79;33.14
9525;BME280;15940;48.734;9.112;2023-07-22T13:11:00;96382.59;;;26.82;33.54
9525;BME280;15940;48.734;9.112;2023-07-22T13:13:29;96382.53;;;26.70;33.53
9525;BME280;15940;48.734;9.112;2023-07-22T13:15:56;96378.66;;;26.31;35.10
9525;BME280;15940;48.734;9.112;2023-07-22T13:18:22;96370.88;;;26.39;35.52
9525;BME280;15940;48.734;9.112;2023-07-22T13:20:49;96373.41;;;25.92;34.75
9525;BME280;15940;48.734;9.112;2023-07-22T13:23:16;96382.66;;;25.32;37.55
9525;BME280;15940;48.734;9.112;2023-07-22T13:25:43;96377.25;;;25.34;36.89